sensor_id;sensor_type;location;lat;lon;timestamp;pressure;altitude;pressure_sealevel;temperature;humidity
15489;BME280;7846;48.830;9.116;2023-03-21T00:00:55;98091.47;;;14.42;59.85
15489;BME280;7846;48.830;9.116;2023-03-21T00:03:21;98093.66;;;14.39;59.94
15489;BME280;7846;48.830;9.116;2023-03-21T00:05:50;98093.63;;;14.47;60.27
15489;BME280;7846;48.830;9.116;2023-03-21T00:08:19;98094.50;;;14.39;60.50
15489;BME280;7846;48.830;9.116;2023-03-21T00:10:46;98095.66;;;14.37;60.72
15489;BME280;7846;48.830;9.116;2023-03-21T00:13:14;98087.91;;;14.35;60.90
15489;BME280;7846;48.830;9.116;2023-03-21T00:15:41;98089.00;;;14.41;60.48
15489;BME280;7846;48.830;9.116;2023-03-21T00:18:16;98082.91;;;14.40;60.84
15489;BME280;7846;48.830;9.116;2023-03-21T00:20:41;98087.03;;;14.43;60.46
15489;BME280;7846;48.830;9.116;2023-03-21T00:23:10;98084.19;;;14.44;60.44
15489;BME280;7846;48.830;9.116;2023-03-21T00:25:36;98079.72;;;14.45;60.38
15489;BME280;7846;48.830;9.116;2023-03-21T00:28:01;98078.06;;;14.44;60.54
15489;BME280;7846;48.830;9.116;2023-03-21T00:30:27;98074.94;;;14.40;60.07
15489;BME280;7846;48.830;9.116;2023-03-21T00:32:54;98078.25;;;14.11;61.02
15489;BME280;7846;48.830;9.116;2023-03-21T00:35:20;98068.91;;;14.23;60.76
15489;BME280;7846;48.830;9.116;2023-03-21T00:37:46;98070.69;;;14.31;60.34
15489;BME280;7846;48.830;9.116;2023-03-21T00:40:12;98068.88;;;14.32;59.71
15489;BME280;7846;48.830;9.116;2023-03-21T00:42:38;98060.09;;;14.31;59.94
15489;BME280;7846;48.830;9.116;2023-03-21T00:45:04;98055.66;;;14.32;60.05
15489;BME280;7846;48.830;9.116;2023-03-21T00:47:32;98054.78;;;14.31;60.07
15489;BME280;7846;48.830;9.116;2023-03-21T00:49:58;98052.13;;;14.08;60.96
15489;BME280;7846;48.830;9.116;2023-03-21T00:52:24;98052.56;;;13.89;61.79
15489;BME280;7846;48.830;9.116;2023-03-21T00:54:50;98050.09;;;13.79;61.92
15489;BME280;7846;48.830;9.116;2023-03-21T00:57:17;98048.31;;;13.79;62.03
15489;BME280;7846;48.830;9.116;2023-03-21T00:59:42;98046.28;;;13.82;62.03
15489;BME280;7846;48.830;9.116;2023-03-21T01:02:08;98040.03;;;13.74;62.51
15489;BME280;7846;48.830;9.116;2023-03-21T01:04:39;98040.84;;;13.83;62.34
15489;BME280;7846;48.830;9.116;2023-03-21T01:07:04;98046.28;;;13.82;62.33
15489;BME280;7846;48.830;9.116;2023-03-21T01:09:29;98049.44;;;13.85;62.05
15489;BME280;7846;48.830;9.116;2023-03-21T01:11:56;98036.06;;;13.78;62.61
15489;BME280;7846;48.830;9.116;2023-03-21T01:14:24;98038.63;;;13.95;62.29
15489;BME280;7846;48.830;9.116;2023-03-21T01:16:51;98043.19;;;14.09;61.70
15489;BME280;7846;48.830;9.116;2023-03-21T01:19:19;98038.19;;;14.14;61.43
15489;BME280;7846;48.830;9.116;2023-03-21T01:21:44;98037.53;;;14.12;61.37
15489;BME280;7846;48.830;9.116;2023-03-21T01:24:10;98041.84;;;14.13;61.26
15489;BME280;7846;48.830;9.116;2023-03-21T01:26:37;98039.47;;;13.95;62.25
15489;BME280;7846;48.830;9.116;2023-03-21T01:29:04;98035.03;;;13.88;62.66
15489;BME280;7846;48.830;9.116;2023-03-21T01:31:31;98030.31;;;14.06;61.98
15489;BME280;7846;48.830;9.116;2023-03-21T01:33:58;98029.31;;;14.07;61.59
15489;BME280;7846;48.830;9.116;2023-03-21T01:36:25;98028.47;;;14.07;61.70
15489;BME280;7846;48.830;9.116;2023-03-21T01:38:52;98029.84;;;14.02;61.37
15489;BME280;7846;48.830;9.116;2023-03-21T01:41:31;98028.47;;;14.07;61.76
15489;BME280;7846;48.830;9.116;2023-03-21T01:44:00;98028.53;;;13.98;61.46
15489;BME280;7846;48.830;9.116;2023-03-21T01:46:38;98020.34;;;14.08;61.27
15489;BME280;7846;48.830;9.116;2023-03-21T01:49:24;98029.59;;;14.12;61.17
15489;BME280;7846;48.830;9.116;2023-03-21T01:52:06;98028.44;;;14.15;60.55
15489;BME280;7846;48.830;9.116;2023-03-21T01:54:35;98023.66;;;14.10;60.78
15489;BME280;7846;48.830;9.116;2023-03-21T01:57:08;98019.00;;;14.12;60.66
15489;BME280;7846;48.830;9.116;2023-03-21T01:59:42;98012.19;;;14.18;60.45
15489;BME280;7846;48.830;9.116;2023-03-21T02:02:12;98010.72;;;14.15;60.30
15489;BME280;7846;48.830;9.116;2023-03-21T02:04:43;98009.44;;;14.11;60.53
15489;BME280;7846;48.830;9.116;2023-03-21T02:07:17;98018.03;;;14.13;60.44
15489;BME280;7846;48.830;9.116;2023-03-21T02:09:48;98016.19;;;14.14;60.57
15489;BME280;7846;48.830;9.116;2023-03-21T02:12:15;98014.94;;;14.01;61.06
15489;BME280;7846;48.830;9.116;2023-03-21T02:14:47;98008.31;;;14.06;61.34
15489;BME280;7846;48.830;9.116;2023-03-21T02:17:33;98003.09;;;13.89;61.54
15489;BME280;7846;48.830;9.116;2023-03-21T02:20:17;98007.44;;;13.82;62.27
15489;BME280;7846;48.830;9.116;2023-03-21T02:23:08;98006.09;;;13.86;62.12
15489;BME280;7846;48.830;9.116;2023-03-21T02:26:26;98007.00;;;13.70;62.31
15489;BME280;7846;48.830;9.116;2023-03-21T02:29:24;98007.00;;;13.70;62.53
15489;BME280;7846;48.830;9.116;2023-03-21T02:32:08;98004.53;;;13.61;63.07
15489;BME280;7846;48.830;9.116;2023-03-21T02:35:09;98001.03;;;13.76;63.09
15489;BME280;7846;48.830;9.116;2023-03-21T02:37:52;97992.91;;;13.78;62.59
15489;BME280;7846;48.830;9.116;2023-03-21T02:40:31;97987.22;;;13.58;62.86
15489;BME280;7846;48.830;9.116;2023-03-21T02:43:14;97984.53;;;13.66;62.92
15489;BME280;7846;48.830;9.116;2023-03-21T02:45:48;97979.16;;;13.51;63.96
15489;BME280;7846;48.830;9.116;2023-03-21T02:48:21;97995.84;;;13.52;62.89
15489;BME280;7846;48.830;9.116;2023-03-21T02:50:52;97985.97;;;13.38;62.64
15489;BME280;7846;48.830;9.116;2023-03-21T02:53:21;97988.41;;;13.47;62.51
15489;BME280;7846;48.830;9.116;2023-03-21T02:55:50;97992.78;;;13.32;62.60
15489;BME280;7846;48.830;9.116;2023-03-21T02:58:22;97984.56;;;13.58;62.40
15489;BME280;7846;48.830;9.116;2023-03-21T03:00:51;97985.72;;;13.55;62.21
15489;BME280;7846;48.830;9.116;2023-03-21T03:03:21;97984.25;;;13.53;61.78
15489;BME280;7846;48.830;9.116;2023-03-21T03:05:50;97987.50;;;13.63;61.58
15489;BME280;7846;48.830;9.116;2023-03-21T03:11:23;97974.28;;;13.63;61.38
15489;BME280;7846;48.830;9.116;2023-03-21T03:17:09;97979.91;;;13.60;61.45
15489;BME280;7846;48.830;9.116;2023-03-21T03:19:51;97982.72;;;13.67;61.23
15489;BME280;7846;48.830;9.116;2023-03-21T03:22:31;97976.88;;;13.71;61.05
15489;BME280;7846;48.830;9.116;2023-03-21T03:25:06;97978.03;;;13.77;60.92
15489;BME280;7846;48.830;9.116;2023-03-21T03:27:37;97976.25;;;13.69;61.33
15489;BME280;7846;48.830;9.116;2023-03-21T03:30:08;97979.44;;;13.65;61.72
15489;BME280;7846;48.830;9.116;2023-03-21T03:32:38;97978.56;;;13.64;61.59
15489;BME280;7846;48.830;9.116;2023-03-21T03:35:10;97977.94;;;13.62;61.52
15489;BME280;7846;48.830;9.116;2023-03-21T03:37:39;97978.22;;;13.67;61.36
15489;BME280;7846;48.830;9.116;2023-03-21T03:40:35;97976.88;;;13.71;61.48
15489;BME280;7846;48.830;9.116;2023-03-21T03:43:15;97975.78;;;13.66;61.48
15489;BME280;7846;48.830;9.116;2023-03-21T03:45:50;97970.16;;;13.69;61.27
15489;BME280;7846;48.830;9.116;2023-03-21T03:48:24;97971.31;;;13.66;61.29
15489;BME280;7846;48.830;9.116;2023-03-21T03:51:05;97969.56;;;13.50;61.68
15489;BME280;7846;48.830;9.116;2023-03-21T03:53:37;97965.91;;;13.51;61.99
15489;BME280;7846;48.830;9.116;2023-03-21T03:56:07;97956.34;;;13.50;61.87
15489;BME280;7846;48.830;9.116;2023-03-21T03:58:36;97968.97;;;13.32;62.76
15489;BME280;7846;48.830;9.116;2023-03-21T04:01:07;97963.88;;;13.14;63.16
15489;BME280;7846;48.830;9.116;2023-03-21T04:03:36;97960.81;;;12.86;64.40
15489;BME280;7846;48.830;9.116;2023-03-21T04:06:03;97960.28;;;12.99;63.63
15489;BME280;7846;48.830;9.116;2023-03-21T04:08:29;97960.59;;;13.04;63.36
15489;BME280;7846;48.830;9.116;2023-03-21T04:10:55;97956.81;;;13.06;63.59
15489;BME280;7846;48.830;9.116;2023-03-21T04:13:21;97960.94;;;13.01;63.53
15489;BME280;7846;48.830;9.116;2023-03-21T04:15:47;97956.53;;;12.85;64.00
15489;BME280;7846;48.830;9.116;2023-03-21T04:18:14;97964.09;;;12.96;63.91
15489;BME280;7846;48.830;9.116;2023-03-21T04:20:40;97954.31;;;13.13;62.67
15489;BME280;7846;48.830;9.116;2023-03-21T04:23:08;97962.78;;;12.92;62.98
15489;BME280;7846;48.830;9.116;2023-03-21T04:25:35;97953.38;;;12.90;63.52
15489;BME280;7846;48.830;9.116;2023-03-21T04:28:01;97952.22;;;12.92;63.63
15489;BME280;7846;48.830;9.116;2023-03-21T04:30:26;97950.22;;;12.86;63.51
15489;BME280;7846;48.830;9.116;2023-03-21T04:32:53;97964.63;;;12.75;64.17
15489;BME280;7846;48.830;9.116;2023-03-21T04:35:23;97954.88;;;12.84;63.55
15489;BME280;7846;48.830;9.116;2023-03-21T04:37:49;97954.53;;;12.79;63.36
15489;BME280;7846;48.830;9.116;2023-03-21T04:40:15;97947.16;;;12.33;64.35
15489;BME280;7846;48.830;9.116;2023-03-21T04:42:45;97955.59;;;12.29;64.91
15489;BME280;7846;48.830;9.116;2023-03-21T04:45:12;97951.13;;;12.38;65.07
15489;BME280;7846;48.830;9.116;2023-03-21T04:47:37;97954.56;;;12.38;64.53
15489;BME280;7846;48.830;9.116;2023-03-21T04:50:03;97953.09;;;12.44;64.48
15489;BME280;7846;48.830;9.116;2023-03-21T04:52:30;97953.28;;;12.42;64.82
15489;BME280;7846;48.830;9.116;2023-03-21T04:54:55;97946.84;;;12.37;65.02
15489;BME280;7846;48.830;9.116;2023-03-21T04:57:21;97951.28;;;12.36;64.78
15489;BME280;7846;48.830;9.116;2023-03-21T04:59:47;97946.03;;;12.28;65.37
15489;BME280;7846;48.830;9.116;2023-03-21T05:02:13;97947.81;;;12.19;65.83
15489;BME280;7846;48.830;9.116;2023-03-21T05:04:40;97946.50;;;12.48;65.13
15489;BME280;7846;48.830;9.116;2023-03-21T05:07:06;97946.50;;;12.56;64.52
15489;BME280;7846;48.830;9.116;2023-03-21T05:09:32;97950.94;;;12.55;64.70
15489;BME280;7846;48.830;9.116;2023-03-21T05:11:57;97954.09;;;12.51;65.24
15489;BME280;7846;48.830;9.116;2023-03-21T05:14:24;97953.41;;;12.49;65.32
15489;BME280;7846;48.830;9.116;2023-03-21T05:16:50;97951.97;;;12.46;65.02
15489;BME280;7846;48.830;9.116;2023-03-21T05:19:30;97957.06;;;12.48;64.67
15489;BME280;7846;48.830;9.116;2023-03-21T05:22:02;97949.28;;;12.38;65.15
15489;BME280;7846;48.830;9.116;2023-03-21T05:24:29;97956.72;;;12.18;65.78
15489;BME280;7846;48.830;9.116;2023-03-21T05:26:55;97957.72;;;12.25;65.02
15489;BME280;7846;48.830;9.116;2023-03-21T05:29:27;97954.41;;;12.23;65.45
15489;BME280;7846;48.830;9.116;2023-03-21T05:31:53;97958.03;;;11.98;66.01
15489;BME280;7846;48.830;9.116;2023-03-21T05:34:19;97955.88;;;12.01;66.52
15489;BME280;7846;48.830;9.116;2023-03-21T05:36:44;97963.63;;;12.03;66.72
15489;BME280;7846;48.830;9.116;2023-03-21T05:39:10;97954.72;;;12.04;66.44
15489;BME280;7846;48.830;9.116;2023-03-21T05:41:37;97952.78;;;12.14;66.12
15489;BME280;7846;48.830;9.116;2023-03-21T05:44:04;97957.72;;;12.09;66.74
15489;BME280;7846;48.830;9.116;2023-03-21T05:46:32;97953.44;;;12.24;66.20
15489;BME280;7846;48.830;9.116;2023-03-21T05:48:57;97958.22;;;12.21;66.21
15489;BME280;7846;48.830;9.116;2023-03-21T05:51:23;97956.72;;;12.34;65.71
15489;BME280;7846;48.830;9.116;2023-03-21T05:53:49;97955.56;;;12.37;65.65
15489;BME280;7846;48.830;9.116;2023-03-21T05:56:15;97962.16;;;12.41;66.06
15489;BME280;7846;48.830;9.116;2023-03-21T05:58:41;97957.06;;;12.48;65.63
15489;BME280;7846;48.830;9.116;2023-03-21T06:01:07;97960.38;;;12.58;65.20
15489;BME280;7846;48.830;9.116;2023-03-21T06:03:34;97964.81;;;12.57;65.02
15489;BME280;7846;48.830;9.116;2023-03-21T06:06:00;97964.81;;;12.66;65.15
15489;BME280;7846;48.830;9.116;2023-03-21T06:08:27;97957.88;;;12.65;65.17
15489;BME280;7846;48.830;9.116;2023-03-21T06:10:54;97964.81;;;12.66;65.05
15489;BME280;7846;48.830;9.116;2023-03-21T06:13:19;97971.25;;;12.63;65.53
15489;BME280;7846;48.830;9.116;2023-03-21T06:15:46;97971.09;;;12.65;65.37
15489;BME280;7846;48.830;9.116;2023-03-21T06:18:13;97965.47;;;12.59;65.32
15489;BME280;7846;48.830;9.116;2023-03-21T06:20:40;97971.75;;;12.58;65.73
15489;BME280;7846;48.830;9.116;2023-03-21T06:23:07;97969.13;;;12.42;65.60
15489;BME280;7846;48.830;9.116;2023-03-21T06:25:33;97965.16;;;12.46;65.35
15489;BME280;7846;48.830;9.116;2023-03-21T06:27:59;97969.44;;;12.39;65.55
15489;BME280;7846;48.830;9.116;2023-03-21T06:30:26;97970.59;;;12.45;65.25
15489;BME280;7846;48.830;9.116;2023-03-21T06:32:52;97966.47;;;12.50;65.11
15489;BME280;7846;48.830;9.116;2023-03-21T06:35:19;97955.59;;;12.53;65.01
15489;BME280;7846;48.830;9.116;2023-03-21T06:37:44;97968.59;;;12.63;64.90
15489;BME280;7846;48.830;9.116;2023-03-21T06:40:11;97963.97;;;12.73;64.36
15489;BME280;7846;48.830;9.116;2023-03-21T06:42:38;97954.03;;;12.75;64.11
15489;BME280;7846;48.830;9.116;2023-03-21T06:45:05;97955.69;;;12.84;63.96
15489;BME280;7846;48.830;9.116;2023-03-21T06:47:30;97951.41;;;12.92;63.63
15489;BME280;7846;48.830;9.116;2023-03-21T06:49:57;97950.19;;;13.11;63.54
15489;BME280;7846;48.830;9.116;2023-03-21T06:52:23;97954.94;;;13.23;63.13
15489;BME280;7846;48.830;9.116;2023-03-21T06:54:49;97956.69;;;13.47;63.01
15489;BME280;7846;48.830;9.116;2023-03-21T06:57:15;97950.75;;;13.76;62.19
15489;BME280;7846;48.830;9.116;2023-03-21T06:59:42;97962.06;;;13.93;60.57
15489;BME280;7846;48.830;9.116;2023-03-21T07:02:09;97953.59;;;13.98;59.89
15489;BME280;7846;48.830;9.116;2023-03-21T07:04:35;97951.13;;;14.19;59.53
15489;BME280;7846;48.830;9.116;2023-03-21T07:07:00;97955.53;;;14.27;59.00
15489;BME280;7846;48.830;9.116;2023-03-21T07:09:26;97954.13;;;14.39;57.90
15489;BME280;7846;48.830;9.116;2023-03-21T07:11:52;97951.16;;;14.34;57.71
15489;BME280;7846;48.830;9.116;2023-03-21T07:14:18;97941.06;;;14.75;57.20
15489;BME280;7846;48.830;9.116;2023-03-21T07:16:43;97944.91;;;14.58;56.73
15489;BME280;7846;48.830;9.116;2023-03-21T07:19:08;97947.94;;;14.47;56.84
15489;BME280;7846;48.830;9.116;2023-03-21T07:21:37;97945.91;;;14.87;56.46
15489;BME280;7846;48.830;9.116;2023-03-21T07:24:05;97946.31;;;15.13;55.50
15489;BME280;7846;48.830;9.116;2023-03-21T07:26:33;97952.81;;;15.11;55.45
15489;BME280;7846;48.830;9.116;2023-03-21T07:28:59;97951.34;;;15.08;55.11
15489;BME280;7846;48.830;9.116;2023-03-21T07:31:26;97951.22;;;14.87;55.86
15489;BME280;7846;48.830;9.116;2023-03-21T07:33:52;97952.66;;;14.60;57.73
15489;BME280;7846;48.830;9.116;2023-03-21T07:36:18;97948.22;;;14.90;56.61
15489;BME280;7846;48.830;9.116;2023-03-21T07:38:45;97948.41;;;15.33;55.67
15489;BME280;7846;48.830;9.116;2023-03-21T07:41:11;97949.31;;;15.69;53.95
15489;BME280;7846;48.830;9.116;2023-03-21T07:43:36;97959.94;;;15.69;53.25
15489;BME280;7846;48.830;9.116;2023-03-21T07:46:02;97955.66;;;15.90;52.03
15489;BME280;7846;48.830;9.116;2023-03-21T07:48:29;97955.16;;;16.23;52.39
15489;BME280;7846;48.830;9.116;2023-03-21T07:50:55;97956.50;;;16.12;51.99
15489;BME280;7846;48.830;9.116;2023-03-21T07:53:24;97954.94;;;16.17;51.81
15489;BME280;7846;48.830;9.116;2023-03-21T07:55:54;97954.84;;;16.11;51.72
15489;BME280;7846;48.830;9.116;2023-03-21T07:58:23;97953.66;;;16.13;51.60
15489;BME280;7846;48.830;9.116;2023-03-21T08:00:48;97955.53;;;16.19;51.25
15489;BME280;7846;48.830;9.116;2023-03-21T08:03:14;97952.78;;;15.55;51.64
15489;BME280;7846;48.830;9.116;2023-03-21T08:05:40;97953.19;;;15.88;52.21
15489;BME280;7846;48.830;9.116;2023-03-21T08:08:07;97956.66;;;15.89;51.93
15489;BME280;7846;48.830;9.116;2023-03-21T08:10:33;97949.16;;;16.14;51.43
15489;BME280;7846;48.830;9.116;2023-03-21T08:13:00;97944.91;;;15.98;51.47
15489;BME280;7846;48.830;9.116;2023-03-21T08:15:26;97946.19;;;16.02;51.51
15489;BME280;7846;48.830;9.116;2023-03-21T08:17:51;97944.63;;;16.57;50.41
15489;BME280;7846;48.830;9.116;2023-03-21T08:20:19;97943.34;;;16.25;51.72
15489;BME280;7846;48.830;9.116;2023-03-21T08:22:48;97942.97;;;15.70;52.05
15489;BME280;7846;48.830;9.116;2023-03-21T08:25:15;97943.41;;;16.10;51.01
15489;BME280;7846;48.830;9.116;2023-03-21T08:27:43;97947.13;;;16.37;50.25
15489;BME280;7846;48.830;9.116;2023-03-21T08:30:11;97942.63;;;16.59;49.85
15489;BME280;7846;48.830;9.116;2023-03-21T08:32:38;97942.47;;;16.67;49.36
15489;BME280;7846;48.830;9.116;2023-03-21T08:35:07;97932.69;;;16.96;48.67
15489;BME280;7846;48.830;9.116;2023-03-21T08:37:39;97937.13;;;16.89;48.45
15489;BME280;7846;48.830;9.116;2023-03-21T08:40:08;97931.16;;;17.15;48.34
15489;BME280;7846;48.830;9.116;2023-03-21T08:42:36;97931.28;;;17.00;47.08
15489;BME280;7846;48.830;9.116;2023-03-21T08:45:03;97925.94;;;17.00;47.44
15489;BME280;7846;48.830;9.116;2023-03-21T08:47:30;97919.31;;;17.24;46.87
15489;BME280;7846;48.830;9.116;2023-03-21T08:49:56;97924.59;;;16.83;47.07
15489;BME280;7846;48.830;9.116;2023-03-21T08:52:21;97911.59;;;17.29;46.41
15489;BME280;7846;48.830;9.116;2023-03-21T08:54:48;97924.84;;;17.23;46.18
15489;BME280;7846;48.830;9.116;2023-03-21T08:57:14;97924.13;;;17.42;45.92
15489;BME280;7846;48.830;9.116;2023-03-21T08:59:39;97917.63;;;17.10;46.25
15489;BME280;7846;48.830;9.116;2023-03-21T09:02:06;97912.22;;;17.86;44.83
15489;BME280;7846;48.830;9.116;2023-03-21T09:04:32;97911.53;;;17.71;44.89
15489;BME280;7846;48.830;9.116;2023-03-21T09:06:58;97903.44;;;17.92;45.03
15489;BME280;7846;48.830;9.116;2023-03-21T09:09:29;97910.63;;;18.18;44.45
15489;BME280;7846;48.830;9.116;2023-03-21T09:11:54;97917.59;;;18.19;42.42
15489;BME280;7846;48.830;9.116;2023-03-21T09:14:19;97915.16;;;18.18;43.41
15489;BME280;7846;48.830;9.116;2023-03-21T09:16:46;97920.47;;;18.24;42.80
15489;BME280;7846;48.830;9.116;2023-03-21T09:19:13;97918.63;;;18.31;44.24
15489;BME280;7846;48.830;9.116;2023-03-21T09:21:40;97918.84;;;18.63;43.07
15489;BME280;7846;48.830;9.116;2023-03-21T09:24:06;97917.03;;;18.77;42.27
15489;BME280;7846;48.830;9.116;2023-03-21T09:26:32;97917.16;;;19.15;41.79
15489;BME280;7846;48.830;9.116;2023-03-21T09:28:59;97924.78;;;18.38;42.35
15489;BME280;7846;48.830;9.116;2023-03-21T09:31:25;97917.41;;;18.60;42.56
15489;BME280;7846;48.830;9.116;2023-03-21T09:33:53;97916.41;;;18.61;42.12
15489;BME280;7846;48.830;9.116;2023-03-21T09:36:24;97916.00;;;18.84;40.77
15489;BME280;7846;48.830;9.116;2023-03-21T09:38:52;97907.75;;;18.99;41.59
15489;BME280;7846;48.830;9.116;2023-03-21T09:44:34;97910.72;;;20.44;37.98
15489;BME280;7846;48.830;9.116;2023-03-21T09:49:41;97911.25;;;20.28;38.83
15489;BME280;7846;48.830;9.116;2023-03-21T09:52:18;97904.22;;;19.05;40.57
15489;BME280;7846;48.830;9.116;2023-03-21T09:54:46;97914.97;;;18.59;41.09
15489;BME280;7846;48.830;9.116;2023-03-21T09:57:36;97907.75;;;18.20;40.71
15489;BME280;7846;48.830;9.116;2023-03-21T10:00:05;97899.47;;;19.72;39.44
15489;BME280;7846;48.830;9.116;2023-03-21T10:02:46;97892.72;;;20.01;39.70
15489;BME280;7846;48.830;9.116;2023-03-21T10:05:20;97897.97;;;20.21;38.17
15489;BME280;7846;48.830;9.116;2023-03-21T10:08:00;97893.22;;;20.73;37.19
15489;BME280;7846;48.830;9.116;2023-03-21T10:10:34;97882.81;;;20.09;37.59
15489;BME280;7846;48.830;9.116;2023-03-21T10:13:02;97881.44;;;20.56;37.65
15489;BME280;7846;48.830;9.116;2023-03-21T10:15:30;97879.66;;;21.30;37.21
15489;BME280;7846;48.830;9.116;2023-03-21T10:18:04;97885.84;;;21.79;36.22
15489;BME280;7846;48.830;9.116;2023-03-21T10:20:32;97879.19;;;20.96;35.79
15489;BME280;7846;48.830;9.116;2023-03-21T10:23:00;97882.69;;;21.52;35.97
15489;BME280;7846;48.830;9.116;2023-03-21T10:25:38;97876.84;;;21.43;35.10
15489;BME280;7846;48.830;9.116;2023-03-21T10:28:06;97873.91;;;21.08;36.71
15489;BME280;7846;48.830;9.116;2023-03-21T10:30:53;97874.28;;;21.79;36.78
15489;BME280;7846;48.830;9.116;2023-03-21T10:33:23;97872.59;;;21.84;35.67
15489;BME280;7846;48.830;9.116;2023-03-21T10:35:52;97865.78;;;21.70;35.23
15489;BME280;7846;48.830;9.116;2023-03-21T10:38:22;97866.13;;;21.07;35.92
15489;BME280;7846;48.830;9.116;2023-03-21T10:40:48;97860.47;;;20.78;36.91
15489;BME280;7846;48.830;9.116;2023-03-21T10:43:30;97864.09;;;21.02;37.07
15489;BME280;7846;48.830;9.116;2023-03-21T10:46:05;97859.03;;;21.12;36.68
15489;BME280;7846;48.830;9.116;2023-03-21T10:48:35;97855.84;;;20.85;36.91
15489;BME280;7846;48.830;9.116;2023-03-21T10:51:00;97859.03;;;20.94;36.62
15489;BME280;7846;48.830;9.116;2023-03-21T10:53:32;97857.16;;;21.31;36.58
15489;BME280;7846;48.830;9.116;2023-03-21T10:56:00;97858.19;;;21.67;36.99
15489;BME280;7846;48.830;9.116;2023-03-21T10:58:35;97863.25;;;21.57;35.52
15489;BME280;7846;48.830;9.116;2023-03-21T11:01:09;97860.22;;;21.53;35.55
15489;BME280;7846;48.830;9.116;2023-03-21T11:03:41;97857.72;;;21.40;36.59
15489;BME280;7846;48.830;9.116;2023-03-21T11:06:15;97863.59;;;21.12;36.51
15489;BME280;7846;48.830;9.116;2023-03-21T11:08:46;97855.97;;;21.27;36.75
15489;BME280;7846;48.830;9.116;2023-03-21T11:11:20;97851.31;;;21.41;36.49
15489;BME280;7846;48.830;9.116;2023-03-21T11:13:56;97850.94;;;21.19;36.21
15489;BME280;7846;48.830;9.116;2023-03-21T11:16:23;97844.97;;;21.17;36.80
15489;BME280;7846;48.830;9.116;2023-03-21T11:18:51;97849.81;;;20.90;37.52
15489;BME280;7846;48.830;9.116;2023-03-21T11:21:17;97847.66;;;20.80;37.27
15489;BME280;7846;48.830;9.116;2023-03-21T11:23:45;97854.38;;;21.08;37.73
15489;BME280;7846;48.830;9.116;2023-03-21T11:26:38;97850.81;;;20.95;37.35
15489;BME280;7846;48.830;9.116;2023-03-21T11:29:28;97838.06;;;20.91;37.42
15489;BME280;7846;48.830;9.116;2023-03-21T11:32:09;97844.69;;;21.25;37.14
15489;BME280;7846;48.830;9.116;2023-03-21T11:34:45;97842.03;;;21.07;37.38
15489;BME280;7846;48.830;9.116;2023-03-21T11:39:45;97836.78;;;21.30;37.41
15489;BME280;7846;48.830;9.116;2023-03-21T11:42:26;97833.75;;;20.46;37.55
15489;BME280;7846;48.830;9.116;2023-03-21T11:45:10;97829.22;;;20.03;38.77
15489;BME280;7846;48.830;9.116;2023-03-21T11:47:37;97822.59;;;20.56;37.70
15489;BME280;7846;48.830;9.116;2023-03-21T11:50:32;97822.75;;;20.79;37.06
15489;BME280;7846;48.830;9.116;2023-03-21T11:53:17;97808.06;;;21.07;37.01
15489;BME280;7846;48.830;9.116;2023-03-21T11:56:37;97806.50;;;20.81;37.04
15489;BME280;7846;48.830;9.116;2023-03-21T12:01:23;97801.91;;;20.70;37.27
15489;BME280;7846;48.830;9.116;2023-03-21T12:03:59;97802.53;;;20.65;37.56
15489;BME280;7846;48.830;9.116;2023-03-21T12:06:32;97795.25;;;20.11;38.71
15489;BME280;7846;48.830;9.116;2023-03-21T12:09:22;97795.91;;;20.06;38.46
15489;BME280;7846;48.830;9.116;2023-03-21T12:12:26;97783.97;;;20.89;38.04
15489;BME280;7846;48.830;9.116;2023-03-21T12:18:04;97788.97;;;20.67;35.22
15489;BME280;7846;48.830;9.116;2023-03-21T12:21:32;97787.25;;;20.72;34.14
15489;BME280;7846;48.830;9.116;2023-03-21T12:26:23;97774.47;;;20.93;33.48
15489;BME280;7846;48.830;9.116;2023-03-21T12:32:06;97764.59;;;20.75;35.32
15489;BME280;7846;48.830;9.116;2023-03-21T12:40:33;97760.97;;;21.18;35.20
15489;BME280;7846;48.830;9.116;2023-03-21T12:45:51;97749.84;;;21.33;35.28
15489;BME280;7846;48.830;9.116;2023-03-21T12:48:35;97746.47;;;21.67;34.65
15489;BME280;7846;48.830;9.116;2023-03-21T12:51:04;97745.19;;;21.70;35.04
15489;BME280;7846;48.830;9.116;2023-03-21T12:56:44;97746.78;;;22.36;34.57
15489;BME280;7846;48.830;9.116;2023-03-21T12:59:33;97745.16;;;23.28;32.05
15489;BME280;7846;48.830;9.116;2023-03-21T13:02:22;97746.78;;;23.29;32.21
15489;BME280;7846;48.830;9.116;2023-03-21T13:04:57;97745.94;;;23.28;35.14
15489;BME280;7846;48.830;9.116;2023-03-21T13:07:25;97752.44;;;23.15;35.50
15489;BME280;7846;48.830;9.116;2023-03-21T13:09:53;97732.22;;;22.32;36.58
15489;BME280;7846;48.830;9.116;2023-03-21T13:13:00;97741.81;;;21.33;38.51
15489;BME280;7846;48.830;9.116;2023-03-21T13:15:33;97737.09;;;21.46;38.68
15489;BME280;7846;48.830;9.116;2023-03-21T13:18:12;97739.84;;;21.10;39.18
15489;BME280;7846;48.830;9.116;2023-03-21T13:20:52;97729.75;;;20.20;39.72
15489;BME280;7846;48.830;9.116;2023-03-21T13:23:21;97728.56;;;21.38;38.17
15489;BME280;7846;48.830;9.116;2023-03-21T13:25:48;97731.50;;;21.36;38.10
15489;BME280;7846;48.830;9.116;2023-03-21T13:28:34;97730.06;;;20.30;39.94
15489;BME280;7846;48.830;9.116;2023-03-21T13:33:39;97731.69;;;20.31;40.84
15489;BME280;7846;48.830;9.116;2023-03-21T13:36:12;97728.28;;;19.80;40.57
15489;BME280;7846;48.830;9.116;2023-03-21T13:38:39;97723.50;;;20.69;40.36
15489;BME280;7846;48.830;9.116;2023-03-21T13:41:12;97719.41;;;20.05;40.44
15489;BME280;7846;48.830;9.116;2023-03-21T13:49:13;97705.81;;;19.88;41.29
15489;BME280;7846;48.830;9.116;2023-03-21T13:54:53;97708.03;;;20.53;40.32
15489;BME280;7846;48.830;9.116;2023-03-21T14:00:16;97693.38;;;20.00;41.57
15489;BME280;7846;48.830;9.116;2023-03-21T14:03:12;97688.72;;;19.39;42.29
15489;BME280;7846;48.830;9.116;2023-03-21T14:05:40;97683.75;;;19.43;41.74
15489;BME280;7846;48.830;9.116;2023-03-21T14:08:09;97682.22;;;19.53;41.76
15489;BME280;7846;48.830;9.116;2023-03-21T14:10:44;97680.47;;;20.71;41.17
15489;BME280;7846;48.830;9.116;2023-03-21T14:13:16;97676.81;;;21.67;39.80
15489;BME280;7846;48.830;9.116;2023-03-21T14:15:47;97678.53;;;20.41;40.57
15489;BME280;7846;48.830;9.116;2023-03-21T14:18:15;97677.63;;;21.14;39.65
15489;BME280;7846;48.830;9.116;2023-03-21T14:20:41;97674.53;;;20.50;40.81